sensor_id;sensor_type;location;lat;lon;timestamp;P1;durP1;ratioP1;P2;durP2;ratioP2
62457;SDS011;48509;52.122;5.250;2022-08-03T00:00:55;5.0;;;1.5;;
62457;SDS011;48509;52.122;5.250;2022-08-03T00:02:42;3.3;;;1.6;;
62457;SDS011;48509;52.122;5.250;2022-08-03T00:04:28;5.7;;;2.0;;
62457;SDS011;48509;52.122;5.250;2022-08-03T00:08:01;4.91;;;1.8;;
62457;SDS011;48509;52.122;5.250;2022-08-03T00:09:49;4.61;;;1.6;;
62457;SDS011;48509;52.122;5.250;2022-08-03T00:11:35;6.4;;;1.9;;
62457;SDS011;48509;52.122;5.250;2022-08-03T00:13:23;4.61;;;1.5;;
62457;SDS011;48509;52.122;5.250;2022-08-03T00:15:10;5.11;;;1.8;;
62457;SDS011;48509;52.122;5.250;2022-08-03T00:16:57;4.8;;;1.9;;
62457;SDS011;48509;52.122;5.250;2022-08-03T00:20:30;5.3;;;1.8;;
62457;SDS011;48509;52.122;5.250;2022-08-03T00:22:16;6.2;;;1.9;;
62457;SDS011;48509;52.122;5.250;2022-08-03T00:24:03;6.4;;;1.6;;
62457;SDS011;48509;52.122;5.250;2022-08-03T00:25:50;7.4;;;1.7;;
62457;SDS011;48509;52.122;5.250;2022-08-03T00:27:36;4.91;;;1.8;;
62457;SDS011;48509;52.122;5.250;2022-08-03T00:29:23;7.4;;;1.9;;
62457;SDS011;48509;52.122;5.250;2022-08-03T00:32:56;7.5;;;1.8;;
62457;SDS011;48509;52.122;5.250;2022-08-03T00:34:42;5.6;;;2.0;;
62457;SDS011;48509;52.122;5.250;2022-08-03T00:36:29;5.5;;;1.7;;
62457;SDS011;48509;52.122;5.250;2022-08-03T00:38:16;3.8;;;1.8;;
62457;SDS011;48509;52.122;5.250;2022-08-03T00:40:02;4.41;;;1.7;;
62457;SDS011;48509;52.122;5.250;2022-08-03T00:43:36;3.8;;;1.6;;
62457;SDS011;48509;52.122;5.250;2022-08-03T00:45:23;6.6;;;1.6;;
62457;SDS011;48509;52.122;5.250;2022-08-03T00:47:12;6.0;;;1.9;;
62457;SDS011;48509;52.122;5.250;2022-08-03T00:48:59;5.6;;;1.8;;
62457;SDS011;48509;52.122;5.250;2022-08-03T00:50:46;3.7;;;1.7;;
62457;SDS011;48509;52.122;5.250;2022-08-03T00:52:33;3.4;;;1.7;;
62457;SDS011;48509;52.122;5.250;2022-08-03T00:56:11;7.3;;;1.7;;
62457;SDS011;48509;52.122;5.250;2022-08-03T00:58:00;4.7;;;2.0;;
62457;SDS011;48509;52.122;5.250;2022-08-03T00:59:48;4.7;;;1.9;;
62457;SDS011;48509;52.122;5.250;2022-08-03T01:01:34;5.8;;;1.9;;
62457;SDS011;48509;52.122;5.250;2022-08-03T01:03:20;7.3;;;2.0;;
62457;SDS011;48509;52.122;5.250;2022-08-03T01:05:06;3.7;;;1.9;;
62457;SDS011;48509;52.122;5.250;2022-08-03T01:08:51;9.4;;;2.21;;
62457;SDS011;48509;52.122;5.250;2022-08-03T01:10:48;7.4;;;2.0;;
62457;SDS011;48509;52.122;5.250;2022-08-03T01:12:51;9.71;;;2.31;;
62457;SDS011;48509;52.122;5.250;2022-08-03T01:14:49;7.1;;;2.0;;
62457;SDS011;48509;52.122;5.250;2022-08-03T01:16:48;5.0;;;2.1;;
62457;SDS011;48509;52.122;5.250;2022-08-03T01:18:44;5.5;;;2.0;;
62457;SDS011;48509;52.122;5.250;2022-08-03T01:20:39;7.3;;;2.1;;
62457;SDS011;48509;52.122;5.250;2022-08-03T01:22:38;6.4;;;2.21;;
62457;SDS011;48509;52.122;5.250;2022-08-03T01:24:49;9.21;;;2.21;;
62457;SDS011;48509;52.122;5.250;2022-08-03T01:26:51;7.2;;;2.0;;
62457;SDS011;48509;52.122;5.250;2022-08-03T01:28:56;4.41;;;2.1;;
62457;SDS011;48509;52.122;5.250;2022-08-03T01:30:49;9.4;;;2.31;;
62457;SDS011;48509;52.122;5.250;2022-08-03T01:32:43;8.1;;;2.1;;
62457;SDS011;48509;52.122;5.250;2022-08-03T01:34:39;6.3;;;2.21;;
62457;SDS011;48509;52.122;5.250;2022-08-03T01:36:34;5.8;;;2.1;;
62457;SDS011;48509;52.122;5.250;2022-08-03T01:38:26;5.0;;;2.21;;
62457;SDS011;48509;52.122;5.250;2022-08-03T01:42:06;6.8;;;2.21;;
62457;SDS011;48509;52.122;5.250;2022-08-03T01:43:56;7.4;;;2.0;;
62457;SDS011;48509;52.122;5.250;2022-08-03T01:45:45;10.7;;;2.4;;
62457;SDS011;48509;52.122;5.250;2022-08-03T01:47:34;4.7;;;2.1;;
62457;SDS011;48509;52.122;5.250;2022-08-03T01:49:22;6.7;;;2.5;;
62457;SDS011;48509;52.122;5.250;2022-08-03T01:51:10;6.4;;;2.6;;
62457;SDS011;48509;52.122;5.250;2022-08-03T01:52:58;6.9;;;2.4;;
62457;SDS011;48509;52.122;5.250;2022-08-03T01:56:37;8.31;;;2.5;;
62457;SDS011;48509;52.122;5.250;2022-08-03T01:58:25;4.41;;;2.5;;
62457;SDS011;48509;52.122;5.250;2022-08-03T02:00:15;5.2;;;2.4;;
62457;SDS011;48509;52.122;5.250;2022-08-03T02:02:04;7.8;;;2.6;;
62457;SDS011;48509;52.122;5.250;2022-08-03T02:03:53;7.6;;;2.6;;
62457;SDS011;48509;52.122;5.250;2022-08-03T02:05:42;5.0;;;2.4;;
62457;SDS011;48509;52.122;5.250;2022-08-03T02:09:20;8.2;;;2.4;;
62457;SDS011;48509;52.122;5.250;2022-08-03T02:11:08;7.8;;;2.7;;
62457;SDS011;48509;52.122;5.250;2022-08-03T02:12:56;5.8;;;2.31;;
62457;SDS011;48509;52.122;5.250;2022-08-03T02:14:46;9.9;;;2.6;;
62457;SDS011;48509;52.122;5.250;2022-08-03T02:16:35;8.2;;;3.4;;
62457;SDS011;48509;52.122;5.250;2022-08-03T02:18:21;6.3;;;2.9;;
62457;SDS011;48509;52.122;5.250;2022-08-03T02:20:11;8.81;;;3.2;;
62457;SDS011;48509;52.122;5.250;2022-08-03T02:23:48;11.5;;;3.3;;
62457;SDS011;48509;52.122;5.250;2022-08-03T02:25:37;7.1;;;3.2;;
62457;SDS011;48509;52.122;5.250;2022-08-03T02:27:35;10.21;;;3.5;;
62457;SDS011;48509;52.122;5.250;2022-08-03T02:29:28;8.1;;;3.2;;
62457;SDS011;48509;52.122;5.250;2022-08-03T02:31:21;7.6;;;2.8;;
62457;SDS011;48509;52.122;5.250;2022-08-03T02:33:14;6.8;;;2.9;;
62457;SDS011;48509;52.122;5.250;2022-08-03T02:35:10;8.81;;;3.3;;
62457;SDS011;48509;52.122;5.250;2022-08-03T02:36:59;10.9;;;3.5;;
62457;SDS011;48509;52.122;5.250;2022-08-03T02:40:37;8.0;;;3.2;;
62457;SDS011;48509;52.122;5.250;2022-08-03T02:42:31;8.81;;;3.2;;
62457;SDS011;48509;52.122;5.250;2022-08-03T02:44:21;7.5;;;3.0;;
62457;SDS011;48509;52.122;5.250;2022-08-03T02:46:11;9.0;;;3.1;;
62457;SDS011;48509;52.122;5.250;2022-08-03T02:48:02;8.9;;;3.0;;
62457;SDS011;48509;52.122;5.250;2022-08-03T02:49:51;8.4;;;3.2;;
62457;SDS011;48509;52.122;5.250;2022-08-03T02:51:41;7.4;;;3.2;;
62457;SDS011;48509;52.122;5.250;2022-08-03T02:55:19;5.3;;;2.7;;
62457;SDS011;48509;52.122;5.250;2022-08-03T02:57:08;11.7;;;3.1;;
62457;SDS011;48509;52.122;5.250;2022-08-03T02:58:59;10.0;;;3.1;;
62457;SDS011;48509;52.122;5.250;2022-08-03T03:00:46;9.9;;;3.1;;
62457;SDS011;48509;52.122;5.250;2022-08-03T03:02:35;9.5;;;3.1;;
62457;SDS011;48509;52.122;5.250;2022-08-03T03:04:23;10.3;;;3.2;;
62457;SDS011;48509;52.122;5.250;2022-08-03T03:06:12;10.0;;;3.5;;
62457;SDS011;48509;52.122;5.250;2022-08-03T03:09:48;12.7;;;3.5;;
62457;SDS011;48509;52.122;5.250;2022-08-03T03:11:37;8.31;;;3.4;;
62457;SDS011;48509;52.122;5.250;2022-08-03T03:13:25;8.31;;;3.2;;
62457;SDS011;48509;52.122;5.250;2022-08-03T03:15:14;10.8;;;3.7;;
62457;SDS011;48509;52.122;5.250;2022-08-03T03:17:00;11.1;;;3.4;;
62457;SDS011;48509;52.122;5.250;2022-08-03T03:18:48;8.5;;;3.4;;
62457;SDS011;48509;52.122;5.250;2022-08-03T03:22:24;10.6;;;3.5;;
62457;SDS011;48509;52.122;5.250;2022-08-03T03:24:13;10.8;;;3.4;;
62457;SDS011;48509;52.122;5.250;2022-08-03T03:26:01;12.2;;;3.6;;
62457;SDS011;48509;52.122;5.250;2022-08-03T03:27:48;8.71;;;3.3;;
62457;SDS011;48509;52.122;5.250;2022-08-03T03:29:35;9.6;;;3.6;;
62457;SDS011;48509;52.122;5.250;2022-08-03T03:31:21;7.5;;;3.2;;
62457;SDS011;48509;52.122;5.250;2022-08-03T03:34:56;12.6;;;3.9;;
62457;SDS011;48509;52.122;5.250;2022-08-03T03:36:45;9.9;;;3.3;;
62457;SDS011;48509;52.122;5.250;2022-08-03T03:38:32;10.9;;;4.2;;
62457;SDS011;48509;52.122;5.250;2022-08-03T03:40:19;10.4;;;3.8;;
62457;SDS011;48509;52.122;5.250;2022-08-03T03:42:07;10.1;;;4.0;;
62457;SDS011;48509;52.122;5.250;2022-08-03T03:43:54;8.4;;;3.6;;
62457;SDS011;48509;52.122;5.250;2022-08-03T03:47:28;9.5;;;3.9;;
62457;SDS011;48509;52.122;5.250;2022-08-03T03:49:15;8.2;;;3.6;;
62457;SDS011;48509;52.122;5.250;2022-08-03T03:51:02;9.31;;;3.4;;
62457;SDS011;48509;52.122;5.250;2022-08-03T03:52:48;14.3;;;3.6;;
62457;SDS011;48509;52.122;5.250;2022-08-03T03:54:38;12.9;;;4.1;;
62457;SDS011;48509;52.122;5.250;2022-08-03T03:56:26;11.1;;;4.0;;
62457;SDS011;48509;52.122;5.250;2022-08-03T04:00:00;13.7;;;3.9;;
62457;SDS011;48509;52.122;5.250;2022-08-03T04:01:47;7.4;;;3.1;;
62457;SDS011;48509;52.122;5.250;2022-08-03T04:03:33;12.0;;;3.9;;
62457;SDS011;48509;52.122;5.250;2022-08-03T04:11:25;6.0;;;3.2;;
62457;SDS011;48509;52.122;5.250;2022-08-03T04:13:15;9.6;;;3.3;;
62457;SDS011;48509;52.122;5.250;2022-08-03T04:16:52;8.71;;;3.7;;
62457;SDS011;48509;52.122;5.250;2022-08-03T04:18:43;8.1;;;3.6;;
62457;SDS011;48509;52.122;5.250;2022-08-03T04:20:35;7.7;;;3.7;;
62457;SDS011;48509;52.122;5.250;2022-08-03T04:22:26;9.1;;;3.7;;
62457;SDS011;48509;52.122;5.250;2022-08-03T04:24:16;9.0;;;3.5;;
62457;SDS011;48509;52.122;5.250;2022-08-03T04:26:05;10.3;;;3.7;;
62457;SDS011;48509;52.122;5.250;2022-08-03T04:27:58;11.3;;;4.3;;
62457;SDS011;48509;52.122;5.250;2022-08-03T04:31:37;10.8;;;4.1;;
62457;SDS011;48509;52.122;5.250;2022-08-03T04:33:25;13.9;;;3.6;;
62457;SDS011;48509;52.122;5.250;2022-08-03T04:35:17;10.4;;;4.1;;
62457;SDS011;48509;52.122;5.250;2022-08-03T04:37:07;11.1;;;3.8;;
62457;SDS011;48509;52.122;5.250;2022-08-03T04:39:10;9.6;;;4.1;;
62457;SDS011;48509;52.122;5.250;2022-08-03T04:41:01;12.5;;;4.0;;
62457;SDS011;48509;52.122;5.250;2022-08-03T04:42:49;12.5;;;4.5;;
62457;SDS011;48509;52.122;5.250;2022-08-03T04:44:40;10.6;;;4.2;;
62457;SDS011;48509;52.122;5.250;2022-08-03T04:48:22;11.5;;;3.9;;
62457;SDS011;48509;52.122;5.250;2022-08-03T04:50:09;9.81;;;4.1;;
62457;SDS011;48509;52.122;5.250;2022-08-03T04:51:56;12.3;;;4.0;;
62457;SDS011;48509;52.122;5.250;2022-08-03T04:53:43;14.1;;;4.41;;
62457;SDS011;48509;52.122;5.250;2022-08-03T04:55:30;12.4;;;4.2;;
62457;SDS011;48509;52.122;5.250;2022-08-03T04:57:18;10.5;;;3.8;;
62457;SDS011;48509;52.122;5.250;2022-08-03T05:00:52;11.0;;;4.1;;
62457;SDS011;48509;52.122;5.250;2022-08-03T05:02:39;9.9;;;3.8;;
62457;SDS011;48509;52.122;5.250;2022-08-03T05:04:25;13.6;;;3.8;;
62457;SDS011;48509;52.122;5.250;2022-08-03T05:06:11;9.5;;;3.8;;
62457;SDS011;48509;52.122;5.250;2022-08-03T05:07:57;11.0;;;4.1;;
62457;SDS011;48509;52.122;5.250;2022-08-03T05:09:44;10.21;;;3.4;;
62457;SDS011;48509;52.122;5.250;2022-08-03T05:13:17;11.7;;;3.9;;
62457;SDS011;48509;52.122;5.250;2022-08-03T05:15:05;12.3;;;4.1;;
62457;SDS011;48509;52.122;5.250;2022-08-03T05:16:52;12.6;;;4.1;;
62457;SDS011;48509;52.122;5.250;2022-08-03T05:18:38;11.0;;;4.3;;
62457;SDS011;48509;52.122;5.250;2022-08-03T05:20:25;12.2;;;3.9;;
62457;SDS011;48509;52.122;5.250;2022-08-03T05:22:12;9.5;;;3.5;;
62457;SDS011;48509;52.122;5.250;2022-08-03T05:25:44;11.2;;;4.2;;
62457;SDS011;48509;52.122;5.250;2022-08-03T05:27:31;14.1;;;4.41;;
62457;SDS011;48509;52.122;5.250;2022-08-03T05:29:17;9.0;;;3.8;;
62457;SDS011;48509;52.122;5.250;2022-08-03T05:31:04;12.7;;;4.1;;
62457;SDS011;48509;52.122;5.250;2022-08-03T05:32:51;9.9;;;3.9;;
62457;SDS011;48509;52.122;5.250;2022-08-03T05:36:24;10.9;;;4.2;;
62457;SDS011;48509;52.122;5.250;2022-08-03T05:38:11;11.7;;;4.41;;
62457;SDS011;48509;52.122;5.250;2022-08-03T05:39:57;9.9;;;3.5;;
62457;SDS011;48509;52.122;5.250;2022-08-03T05:41:43;12.5;;;4.1;;
62457;SDS011;48509;52.122;5.250;2022-08-03T05:43:30;10.8;;;3.6;;
62457;SDS011;48509;52.122;5.250;2022-08-03T05:45:18;11.0;;;4.1;;
62457;SDS011;48509;52.122;5.250;2022-08-03T05:48:51;15.7;;;4.7;;
62457;SDS011;48509;52.122;5.250;2022-08-03T05:50:37;9.4;;;4.0;;
62457;SDS011;48509;52.122;5.250;2022-08-03T05:52:23;13.9;;;4.1;;
62457;SDS011;48509;52.122;5.250;2022-08-03T05:54:09;13.7;;;4.3;;
62457;SDS011;48509;52.122;5.250;2022-08-03T05:55:57;16.0;;;4.3;;
62457;SDS011;48509;52.122;5.250;2022-08-03T05:59:31;12.7;;;4.3;;
62457;SDS011;48509;52.122;5.250;2022-08-03T06:01:17;12.1;;;4.61;;
62457;SDS011;48509;52.122;5.250;2022-08-03T06:03:05;10.6;;;4.61;;
62457;SDS011;48509;52.122;5.250;2022-08-03T06:04:51;12.3;;;4.1;;
62457;SDS011;48509;52.122;5.250;2022-08-03T06:06:39;13.5;;;4.61;;
62457;SDS011;48509;52.122;5.250;2022-08-03T06:08:25;14.2;;;4.3;;
62457;SDS011;48509;52.122;5.250;2022-08-03T06:11:57;16.5;;;4.1;;
62457;SDS011;48509;52.122;5.250;2022-08-03T06:13:43;12.8;;;4.0;;
62457;SDS011;48509;52.122;5.250;2022-08-03T06:15:32;12.1;;;4.1;;
62457;SDS011;48509;52.122;5.250;2022-08-03T06:17:18;9.0;;;3.9;;
62457;SDS011;48509;52.122;5.250;2022-08-03T06:19:06;13.8;;;4.1;;
62457;SDS011;48509;52.122;5.250;2022-08-03T06:20:52;10.7;;;3.9;;
62457;SDS011;48509;52.122;5.250;2022-08-03T06:24:25;18.3;;;4.2;;
62457;SDS011;48509;52.122;5.250;2022-08-03T06:26:12;9.6;;;3.5;;
62457;SDS011;48509;52.122;5.250;2022-08-03T06:27:59;13.9;;;4.2;;
62457;SDS011;48509;52.122;5.250;2022-08-03T06:29:45;15.3;;;4.1;;
62457;SDS011;48509;52.122;5.250;2022-08-03T06:31:32;18.2;;;4.7;;
62457;SDS011;48509;52.122;5.250;2022-08-03T06:35:05;13.7;;;3.7;;
62457;SDS011;48509;52.122;5.250;2022-08-03T06:36:53;13.3;;;3.6;;
62457;SDS011;48509;52.122;5.250;2022-08-03T06:38:39;12.5;;;3.7;;
62457;SDS011;48509;52.122;5.250;2022-08-03T06:40:28;22.0;;;4.7;;
62457;SDS011;48509;52.122;5.250;2022-08-03T06:42:15;14.5;;;4.3;;
62457;SDS011;48509;52.122;5.250;2022-08-03T06:44:02;15.2;;;4.3;;
62457;SDS011;48509;52.122;5.250;2022-08-03T06:47:35;15.2;;;4.1;;
62457;SDS011;48509;52.122;5.250;2022-08-03T06:49:23;18.61;;;4.41;;
62457;SDS011;48509;52.122;5.250;2022-08-03T06:51:09;14.5;;;4.0;;
62457;SDS011;48509;52.122;5.250;2022-08-03T06:52:57;20.3;;;4.1;;
62457;SDS011;48509;52.122;5.250;2022-08-03T06:54:44;13.2;;;3.9;;
62457;SDS011;48509;52.122;5.250;2022-08-03T06:56:31;10.3;;;3.8;;
62457;SDS011;48509;52.122;5.250;2022-08-03T07:00:03;16.11;;;3.5;;
62457;SDS011;48509;52.122;5.250;2022-08-03T07:01:50;14.2;;;4.0;;
62457;SDS011;48509;52.122;5.250;2022-08-03T07:03:37;12.2;;;4.0;;
62457;SDS011;48509;52.122;5.250;2022-08-03T07:05:23;14.3;;;3.9;;
62457;SDS011;48509;52.122;5.250;2022-08-03T07:07:10;14.8;;;4.1;;
62457;SDS011;48509;52.122;5.250;2022-08-03T07:08:56;14.9;;;4.2;;
62457;SDS011;48509;52.122;5.250;2022-08-03T07:12:30;15.8;;;4.61;;
62457;SDS011;48509;52.122;5.250;2022-08-03T07:14:17;15.1;;;4.2;;
62457;SDS011;48509;52.122;5.250;2022-08-03T07:16:03;11.5;;;3.6;;
62457;SDS011;48509;52.122;5.250;2022-08-03T07:17:50;11.6;;;3.9;;
62457;SDS011;48509;52.122;5.250;2022-08-03T07:19:36;14.6;;;4.41;;
62457;SDS011;48509;52.122;5.250;2022-08-03T07:23:10;17.41;;;4.2;;
62457;SDS011;48509;52.122;5.250;2022-08-03T07:24:56;15.1;;;4.41;;
62457;SDS011;48509;52.122;5.250;2022-08-03T07:26:43;11.0;;;3.6;;
62457;SDS011;48509;52.122;5.250;2022-08-03T07:28:29;11.3;;;3.8;;
62457;SDS011;48509;52.122;5.250;2022-08-03T07:30:15;17.5;;;4.1;;
62457;SDS011;48509;52.122;5.250;2022-08-03T07:32:03;14.5;;;3.9;;
62457;SDS011;48509;52.122;5.250;2022-08-03T07:35:38;12.7;;;4.0;;
62457;SDS011;48509;52.122;5.250;2022-08-03T07:37:24;12.8;;;3.9;;
62457;SDS011;48509;52.122;5.250;2022-08-03T07:39:11;12.6;;;4.1;;
62457;SDS011;48509;52.122;5.250;2022-08-03T07:40:58;17.91;;;4.5;;
62457;SDS011;48509;52.122;5.250;2022-08-03T07:42:44;18.0;;;4.3;;
62457;SDS011;48509;52.122;5.250;2022-08-03T07:44:30;13.1;;;4.1;;
62457;SDS011;48509;52.122;5.250;2022-08-03T07:48:04;14.8;;;4.7;;
62457;SDS011;48509;52.122;5.250;2022-08-03T07:49:50;15.5;;;4.3;;
62457;SDS011;48509;52.122;5.250;2022-08-03T07:51:37;13.6;;;3.9;;
62457;SDS011;48509;52.122;5.250;2022-08-03T07:53:25;14.9;;;4.3;;
62457;SDS011;48509;52.122;5.250;2022-08-03T07:55:11;12.0;;;3.8;;
62457;SDS011;48509;52.122;5.250;2022-08-03T07:56:58;8.9;;;4.1;;
62457;SDS011;48509;52.122;5.250;2022-08-03T08:00:31;17.5;;;4.41;;
62457;SDS011;48509;52.122;5.250;2022-08-03T08:02:18;18.11;;;4.2;;
62457;SDS011;48509;52.122;5.250;2022-08-03T08:04:05;17.7;;;4.3;;
62457;SDS011;48509;52.122;5.250;2022-08-03T08:05:52;11.8;;;4.0;;
62457;SDS011;48509;52.122;5.250;2022-08-03T08:07:39;16.0;;;3.9;;
62457;SDS011;48509;52.122;5.250;2022-08-03T08:11:13;14.7;;;4.3;;
62457;SDS011;48509;52.122;5.250;2022-08-03T08:12:59;16.0;;;4.7;;
62457;SDS011;48509;52.122;5.250;2022-08-03T08:14:46;17.41;;;4.5;;
62457;SDS011;48509;52.122;5.250;2022-08-03T08:16:32;11.9;;;4.0;;
62457;SDS011;48509;52.122;5.250;2022-08-03T08:18:18;14.9;;;4.2;;
62457;SDS011;48509;52.122;5.250;2022-08-03T08:20:05;15.4;;;4.3;;
62457;SDS011;48509;52.122;5.250;2022-08-03T08:23:39;16.4;;;4.2;;
62457;SDS011;48509;52.122;5.250;2022-08-03T08:25:25;18.7;;;4.91;;
62457;SDS011;48509;52.122;5.250;2022-08-03T08:27:12;16.0;;;4.0;;
62457;SDS011;48509;52.122;5.250;2022-08-03T08:28:59;19.7;;;4.1;;
62457;SDS011;48509;52.122;5.250;2022-08-03T08:30:46;11.1;;;3.5;;
62457;SDS011;48509;52.122;5.250;2022-08-03T08:32:36;19.5;;;4.0;;
62457;SDS011;48509;52.122;5.250;2022-08-03T08:36:08;13.5;;;3.6;;
62457;SDS011;48509;52.122;5.250;2022-08-03T08:37:54;12.5;;;3.9;;
62457;SDS011;48509;52.122;5.250;2022-08-03T08:39:40;14.2;;;3.9;;
62457;SDS011;48509;52.122;5.250;2022-08-03T08:41:27;14.1;;;4.0;;
62457;SDS011;48509;52.122;5.250;2022-08-03T08:43:14;10.5;;;3.9;;
62457;SDS011;48509;52.122;5.250;2022-08-03T08:46:48;15.6;;;4.61;;
62457;SDS011;48509;52.122;5.250;2022-08-03T08:48:39;18.61;;;4.41;;
62457;SDS011;48509;52.122;5.250;2022-08-03T08:50:28;13.9;;;4.3;;
62457;SDS011;48509;52.122;5.250;2022-08-03T08:52:16;20.7;;;4.5;;
62457;SDS011;48509;52.122;5.250;2022-08-03T08:54:09;18.11;;;4.2;;
62457;SDS011;48509;52.122;5.250;2022-08-03T08:55:57;16.2;;;4.0;;
62457;SDS011;48509;52.122;5.250;2022-08-03T08:57:47;15.3;;;4.41;;
62457;SDS011;48509;52.122;5.250;2022-08-03T09:01:21;15.4;;;4.1;;
62457;SDS011;48509;52.122;5.250;2022-08-03T09:03:08;19.5;;;4.1;;
62457;SDS011;48509;52.122;5.250;2022-08-03T09:04:55;13.4;;;4.1;;
62457;SDS011;48509;52.122;5.250;2022-08-03T09:06:43;13.5;;;4.0;;
62457;SDS011;48509;52.122;5.250;2022-08-03T09:08:30;13.3;;;4.1;;
62457;SDS011;48509;52.122;5.250;2022-08-03T09:10:18;11.1;;;3.6;;
62457;SDS011;48509;52.122;5.250;2022-08-03T09:13:53;13.9;;;4.3;;
62457;SDS011;48509;52.122;5.250;2022-08-03T09:15:41;13.1;;;3.9;;
62457;SDS011;48509;52.122;5.250;2022-08-03T09:17:38;18.11;;;4.3;;
62457;SDS011;48509;52.122;5.250;2022-08-03T09:19:25;12.6;;;3.8;;
62457;SDS011;48509;52.122;5.250;2022-08-03T09:21:12;14.5;;;4.2;;
62457;SDS011;48509;52.122;5.250;2022-08-03T09:23:04;15.5;;;4.3;;
62457;SDS011;48509;52.122;5.250;2022-08-03T09:24:54;14.5;;;4.2;;
62457;SDS011;48509;52.122;5.250;2022-08-03T09:28:35;12.4;;;3.8;;
62457;SDS011;48509;52.122;5.250;2022-08-03T09:30:22;15.9;;;4.3;;
62457;SDS011;48509;52.122;5.250;2022-08-03T09:32:08;18.11;;;4.0;;
62457;SDS011;48509;52.122;5.250;2022-08-03T09:34:00;16.2;;;4.0;;
62457;SDS011;48509;52.122;5.250;2022-08-03T09:35:49;18.8;;;4.0;;
62457;SDS011;48509;52.122;5.250;2022-08-03T09:37:36;15.4;;;4.0;;
62457;SDS011;48509;52.122;5.250;2022-08-03T09:41:16;11.0;;;3.3;;
62457;SDS011;48509;52.122;5.250;2022-08-03T09:43:07;17.2;;;4.3;;
62457;SDS011;48509;52.122;5.250;2022-08-03T09:44:54;18.8;;;4.0;;
62457;SDS011;48509;52.122;5.250;2022-08-03T09:46:48;14.4;;;4.2;;
62457;SDS011;48509;52.122;5.250;2022-08-03T09:48:36;11.1;;;4.0;;
62457;SDS011;48509;52.122;5.250;2022-08-03T09:50:22;14.7;;;3.6;;
62457;SDS011;48509;52.122;5.250;2022-08-03T09:52:12;17.5;;;3.9;;
62457;SDS011;48509;52.122;5.250;2022-08-03T09:55:52;14.0;;;4.0;;
62457;SDS011;48509;52.122;5.250;2022-08-03T09:57:44;13.1;;;4.0;;
62457;SDS011;48509;52.122;5.250;2022-08-03T09:59:31;14.6;;;3.7;;
62457;SDS011;48509;52.122;5.250;2022-08-03T10:01:18;10.7;;;3.5;;
62457;SDS011;48509;52.122;5.250;2022-08-03T10:03:05;17.2;;;4.41;;
62457;SDS011;48509;52.122;5.250;2022-08-03T10:04:52;11.3;;;4.2;;
62457;SDS011;48509;52.122;5.250;2022-08-03T10:08:25;11.6;;;3.8;;
62457;SDS011;48509;52.122;5.250;2022-08-03T10:10:12;11.0;;;3.4;;
62457;SDS011;48509;52.122;5.250;2022-08-03T10:12:09;13.1;;;3.1;;
62457;SDS011;48509;52.122;5.250;2022-08-03T10:13:57;14.3;;;3.8;;
62457;SDS011;48509;52.122;5.250;2022-08-03T10:15:43;14.5;;;3.5;;
62457;SDS011;48509;52.122;5.250;2022-08-03T10:17:30;14.1;;;3.5;;
62457;SDS011;48509;52.122;5.250;2022-08-03T10:19:18;16.5;;;3.5;;
62457;SDS011;48509;52.122;5.250;2022-08-03T10:22:55;13.0;;;3.7;;
62457;SDS011;48509;52.122;5.250;2022-08-03T10:24:45;13.7;;;3.7;;
62457;SDS011;48509;52.122;5.250;2022-08-03T10:26:40;11.9;;;3.6;;
62457;SDS011;48509;52.122;5.250;2022-08-03T10:28:32;12.0;;;3.5;;
62457;SDS011;48509;52.122;5.250;2022-08-03T10:30:20;10.9;;;3.2;;
62457;SDS011;48509;52.122;5.250;2022-08-03T10:32:09;13.8;;;3.4;;
62457;SDS011;48509;52.122;5.250;2022-08-03T10:34:14;9.5;;;3.1;;
62457;SDS011;48509;52.122;5.250;2022-08-03T10:36:07;9.71;;;2.9;;
62457;SDS011;48509;52.122;5.250;2022-08-03T10:39:54;12.4;;;3.0;;
62457;SDS011;48509;52.122;5.250;2022-08-03T10:41:45;21.8;;;3.7;;
62457;SDS011;48509;52.122;5.250;2022-08-03T10:43:35;10.21;;;3.0;;
62457;SDS011;48509;52.122;5.250;2022-08-03T10:45:30;13.9;;;3.2;;
62457;SDS011;48509;52.122;5.250;2022-08-03T10:47:21;18.8;;;3.4;;
62457;SDS011;48509;52.122;5.250;2022-08-03T10:49:11;12.6;;;2.9;;
62457;SDS011;48509;52.122;5.250;2022-08-03T10:50:59;13.8;;;3.0;;
62457;SDS011;48509;52.122;5.250;2022-08-03T10:52:53;7.5;;;2.9;;
62457;SDS011;48509;52.122;5.250;2022-08-03T10:57:44;12.1;;;2.7;;
62457;SDS011;48509;52.122;5.250;2022-08-03T11:00:03;14.0;;;3.4;;
62457;SDS011;48509;52.122;5.250;2022-08-03T11:01:52;8.1;;;2.6;;
62457;SDS011;48509;52.122;5.250;2022-08-03T11:04:12;11.6;;;3.0;;
62457;SDS011;48509;52.122;5.250;2022-08-03T11:06:13;17.11;;;2.9;;
62457;SDS011;48509;52.122;5.250;2022-08-03T11:08:33;10.4;;;2.8;;
62457;SDS011;48509;52.122;5.250;2022-08-03T11:10:28;8.6;;;2.8;;
62457;SDS011;48509;52.122;5.250;2022-08-03T11:12:20;11.6;;;2.6;;
62457;SDS011;48509;52.122;5.250;2022-08-03T11:14:09;9.0;;;2.6;;
62457;SDS011;48509;52.122;5.250;2022-08-03T11:15:59;8.2;;;2.8;;
62457;SDS011;48509;52.122;5.250;2022-08-03T11:18:00;12.3;;;3.2;;
62457;SDS011;48509;52.122;5.250;2022-08-03T11:19:54;12.3;;;2.7;;
62457;SDS011;48509;52.122;5.250;2022-08-03T11:23:45;8.9;;;2.7;;
62457;SDS011;48509;52.122;5.250;2022-08-03T11:25:48;14.1;;;2.9;;
62457;SDS011;48509;52.122;5.250;2022-08-03T11:28:14;15.3;;;2.8;;
62457;SDS011;48509;52.122;5.250;2022-08-03T11:30:11;13.8;;;3.2;;
62457;SDS011;48509;52.122;5.250;2022-08-03T11:32:09;7.6;;;2.5;;
62457;SDS011;48509;52.122;5.250;2022-08-03T11:34:02;7.2;;;2.31;;
62457;SDS011;48509;52.122;5.250;2022-08-03T11:35:57;8.6;;;2.6;;
62457;SDS011;48509;52.122;5.250;2022-08-03T11:38:00;15.2;;;2.9;;
62457;SDS011;48509;52.122;5.250;2022-08-03T11:39:50;11.5;;;2.5;;
62457;SDS011;48509;52.122;5.250;2022-08-03T11:41:39;7.3;;;2.5;;
62457;SDS011;48509;52.122;5.250;2022-08-03T11:43:57;7.4;;;2.6;;
62457;SDS011;48509;52.122;5.250;2022-08-03T11:45:54;9.5;;;2.6;;
62457;SDS011;48509;52.122;5.250;2022-08-03T11:47:43;8.31;;;2.4;;
62457;SDS011;48509;52.122;5.250;2022-08-03T11:49:30;12.1;;;2.6;;
62457;SDS011;48509;52.122;5.250;2022-08-03T11:51:17;19.11;;;2.7;;
62457;SDS011;48509;52.122;5.250;2022-08-03T11:54:52;13.9;;;2.6;;
62457;SDS011;48509;52.122;5.250;2022-08-03T11:56:43;8.4;;;2.4;;
62457;SDS011;48509;52.122;5.250;2022-08-03T11:58:30;7.1;;;2.0;;
62457;SDS011;48509;52.122;5.250;2022-08-03T12:00:18;11.7;;;2.31;;
62457;SDS011;48509;52.122;5.250;2022-08-03T12:02:07;7.4;;;2.6;;
62457;SDS011;48509;52.122;5.250;2022-08-03T12:03:56;6.3;;;2.0;;
62457;SDS011;48509;52.122;5.250;2022-08-03T12:07:36;9.6;;;2.7;;
62457;SDS011;48509;52.122;5.250;2022-08-03T12:09:33;10.3;;;2.6;;
62457;SDS011;48509;52.122;5.250;2022-08-03T12:11:20;13.2;;;2.6;;
62457;SDS011;48509;52.122;5.250;2022-08-03T12:13:08;11.5;;;2.5;;
62457;SDS011;48509;52.122;5.250;2022-08-03T12:14:54;9.21;;;2.1;;
62457;SDS011;48509;52.122;5.250;2022-08-03T12:16:40;9.9;;;3.0;;
62457;SDS011;48509;52.122;5.250;2022-08-03T12:18:33;9.21;;;2.7;;
62457;SDS011;48509;52.122;5.250;2022-08-03T12:22:09;9.31;;;2.5;;
62457;SDS011;48509;52.122;5.250;2022-08-03T12:23:58;6.2;;;2.31;;
62457;SDS011;48509;52.122;5.250;2022-08-03T12:25:46;11.0;;;2.7;;
62457;SDS011;48509;52.122;5.250;2022-08-03T12:27:34;15.3;;;2.9;;
62457;SDS011;48509;52.122;5.250;2022-08-03T12:29:21;7.7;;;2.31;;
62457;SDS011;48509;52.122;5.250;2022-08-03T12:31:08;15.4;;;2.6;;
62457;SDS011;48509;52.122;5.250;2022-08-03T12:34:43;8.0;;;2.5;;
62457;SDS011;48509;52.122;5.250;2022-08-03T12:36:32;12.5;;;2.6;;
62457;SDS011;48509;52.122;5.250;2022-08-03T12:38:21;8.4;;;2.4;;
62457;SDS011;48509;52.122;5.250;2022-08-03T12:40:10;6.5;;;2.5;;
62457;SDS011;48509;52.122;5.250;2022-08-03T12:41:56;7.1;;;2.6;;
62457;SDS011;48509;52.122;5.250;2022-08-03T12:43:46;10.7;;;2.5;;
62457;SDS011;48509;52.122;5.250;2022-08-03T12:47:19;6.0;;;2.21;;
62457;SDS011;48509;52.122;5.250;2022-08-03T12:49:06;7.6;;;2.6;;
62457;SDS011;48509;52.122;5.250;2022-08-03T12:51:06;6.0;;;2.5;;
62457;SDS011;48509;52.122;5.250;2022-08-03T12:52:53;12.1;;;2.6;;
62457;SDS011;48509;52.122;5.250;2022-08-03T12:54:41;9.9;;;3.5;;
62457;SDS011;48509;52.122;5.250;2022-08-03T12:56:28;7.3;;;2.9;;
62457;SDS011;48509;52.122;5.250;2022-08-03T12:58:27;4.3;;;2.4;;